sensor_id;sensor_type;location;lat;lon;timestamp;pressure;altitude;pressure_sealevel;temperature
10598;BMP180;5346;48.766;8.674;2023-02-26T00:02:32;93312.00;;;-3.30
10598;BMP180;5346;48.766;8.674;2023-02-26T00:05:07;93321.00;;;-3.40
10598;BMP180;5346;48.766;8.674;2023-02-26T00:07:42;93340.00;;;-3.40
10598;BMP180;5346;48.766;8.674;2023-02-26T00:10:15;93349.00;;;-3.50
10598;BMP180;5346;48.766;8.674;2023-02-26T00:12:49;93344.00;;;-3.40
10598;BMP180;5346;48.766;8.674;2023-02-26T00:15:23;93342.00;;;-3.40
10598;BMP180;5346;48.766;8.674;2023-02-26T00:18:08;93325.00;;;-3.50
10598;BMP180;5346;48.766;8.674;2023-02-26T00:20:46;93327.00;;;-3.60
10598;BMP180;5346;48.766;8.674;2023-02-26T00:23:20;93333.00;;;-3.60
10598;BMP180;5346;48.766;8.674;2023-02-26T00:25:47;93285.00;;;-3.50
10598;BMP180;5346;48.766;8.674;2023-02-26T00:28:21;93324.00;;;-3.50
10598;BMP180;5346;48.766;8.674;2023-02-26T00:30:48;93355.00;;;-3.40
10598;BMP180;5346;48.766;8.674;2023-02-26T00:33:22;93307.00;;;-3.40
10598;BMP180;5346;48.766;8.674;2023-02-26T00:36:39;93337.00;;;-3.50
10598;BMP180;5346;48.766;8.674;2023-02-26T00:42:39;93334.00;;;-3.30
10598;BMP180;5346;48.766;8.674;2023-02-26T00:45:14;93280.00;;;-3.20
10598;BMP180;5346;48.766;8.674;2023-02-26T00:48:27;93342.00;;;-3.30
10598;BMP180;5346;48.766;8.674;2023-02-26T00:51:27;93353.00;;;-3.10
10598;BMP180;5346;48.766;8.674;2023-02-26T00:56:53;93343.00;;;-3.30
10598;BMP180;5346;48.766;8.674;2023-02-26T00:59:21;93344.00;;;-3.20
10598;BMP180;5346;48.766;8.674;2023-02-26T01:01:55;93345.00;;;-3.40
10598;BMP180;5346;48.766;8.674;2023-02-26T01:04:24;93348.00;;;-3.30
10598;BMP180;5346;48.766;8.674;2023-02-26T01:06:58;93315.00;;;-3.40
10598;BMP180;5346;48.766;8.674;2023-02-26T01:09:36;93348.00;;;-3.30
10598;BMP180;5346;48.766;8.674;2023-02-26T01:12:12;93320.00;;;-3.30
10598;BMP180;5346;48.766;8.674;2023-02-26T01:14:46;93307.00;;;-3.40
10598;BMP180;5346;48.766;8.674;2023-02-26T01:17:49;93348.00;;;-3.40
10598;BMP180;5346;48.766;8.674;2023-02-26T01:20:31;93352.00;;;-3.50
10598;BMP180;5346;48.766;8.674;2023-02-26T01:23:22;93300.00;;;-3.60
10598;BMP180;5346;48.766;8.674;2023-02-26T01:26:04;93341.00;;;-3.60
10598;BMP180;5346;48.766;8.674;2023-02-26T01:28:33;93325.00;;;-3.70
10598;BMP180;5346;48.766;8.674;2023-02-26T01:31:34;93345.00;;;-3.80
10598;BMP180;5346;48.766;8.674;2023-02-26T01:34:18;93329.00;;;-3.90
10598;BMP180;5346;48.766;8.674;2023-02-26T01:37:19;93341.00;;;-3.80
10598;BMP180;5346;48.766;8.674;2023-02-26T01:43:16;93342.00;;;-4.00
10598;BMP180;5346;48.766;8.674;2023-02-26T01:46:49;93351.00;;;-4.10
10598;BMP180;5346;48.766;8.674;2023-02-26T01:48:57;93351.00;;;-4.10
10598;BMP180;5346;48.766;8.674;2023-02-26T01:51:44;93348.00;;;-4.20
10598;BMP180;5346;48.766;8.674;2023-02-26T01:54:33;93328.00;;;-4.20
10598;BMP180;5346;48.766;8.674;2023-02-26T01:57:16;93350.00;;;-4.20
10598;BMP180;5346;48.766;8.674;2023-02-26T01:59:57;93304.00;;;-4.20
10598;BMP180;5346;48.766;8.674;2023-02-26T02:02:31;93351.00;;;-4.30
10598;BMP180;5346;48.766;8.674;2023-02-26T02:05:19;93334.00;;;-4.30
10598;BMP180;5346;48.766;8.674;2023-02-26T02:07:48;93343.00;;;-4.40
10598;BMP180;5346;48.766;8.674;2023-02-26T02:10:22;93346.00;;;-4.60
10598;BMP180;5346;48.766;8.674;2023-02-26T02:15:59;93344.00;;;-4.60
10598;BMP180;5346;48.766;8.674;2023-02-26T02:31:24;93355.00;;;-5.00
10598;BMP180;5346;48.766;8.674;2023-02-26T02:34:28;93349.00;;;-5.10
10598;BMP180;5346;48.766;8.674;2023-02-26T02:37:15;93351.00;;;-5.10
10598;BMP180;5346;48.766;8.674;2023-02-26T02:40:31;93352.00;;;-5.10
10598;BMP180;5346;48.766;8.674;2023-02-26T02:43:00;93359.00;;;-5.20
10598;BMP180;5346;48.766;8.674;2023-02-26T02:48:39;93376.00;;;-5.10
10598;BMP180;5346;48.766;8.674;2023-02-26T02:54:14;93370.00;;;-5.20
10598;BMP180;5346;48.766;8.674;2023-02-26T02:57:01;93366.00;;;-5.20
10598;BMP180;5346;48.766;8.674;2023-02-26T02:59:38;93366.00;;;-5.20
10598;BMP180;5346;48.766;8.674;2023-02-26T03:04:57;93372.00;;;-5.40
10598;BMP180;5346;48.766;8.674;2023-02-26T03:07:40;93373.00;;;-5.40
10598;BMP180;5346;48.766;8.674;2023-02-26T03:10:17;93374.00;;;-5.40
10598;BMP180;5346;48.766;8.674;2023-02-26T03:12:51;93373.00;;;-5.30
10598;BMP180;5346;48.766;8.674;2023-02-26T03:18:23;93378.00;;;-5.40
10598;BMP180;5346;48.766;8.674;2023-02-26T03:21:33;93381.00;;;-5.40
10598;BMP180;5346;48.766;8.674;2023-02-26T03:27:20;93380.00;;;-5.50
10598;BMP180;5346;48.766;8.674;2023-02-26T03:33:02;93377.00;;;-5.70
10598;BMP180;5346;48.766;8.674;2023-02-26T03:35:52;93379.00;;;-5.80
10598;BMP180;5346;48.766;8.674;2023-02-26T03:38:32;93378.00;;;-5.70
10598;BMP180;5346;48.766;8.674;2023-02-26T03:44:25;93375.00;;;-5.90
10598;BMP180;5346;48.766;8.674;2023-02-26T03:47:05;93385.00;;;-5.90
10598;BMP180;5346;48.766;8.674;2023-02-26T03:49:41;93393.00;;;-5.90
10598;BMP180;5346;48.766;8.674;2023-02-26T03:52:16;93396.00;;;-5.70
10598;BMP180;5346;48.766;8.674;2023-02-26T03:54:54;93389.00;;;-5.70
10598;BMP180;5346;48.766;8.674;2023-02-26T03:57:29;93384.00;;;-5.70
10598;BMP180;5346;48.766;8.674;2023-02-26T03:59:57;93394.00;;;-6.00
10598;BMP180;5346;48.766;8.674;2023-02-26T04:02:50;93398.00;;;-6.10
10598;BMP180;5346;48.766;8.674;2023-02-26T04:05:40;93404.00;;;-6.10
10598;BMP180;5346;48.766;8.674;2023-02-26T04:08:09;93403.00;;;-6.20
10598;BMP180;5346;48.766;8.674;2023-02-26T04:10:52;93415.00;;;-6.30
10598;BMP180;5346;48.766;8.674;2023-02-26T04:13:21;93411.00;;;-6.40
10598;BMP180;5346;48.766;8.674;2023-02-26T04:15:55;93416.00;;;-6.30
10598;BMP180;5346;48.766;8.674;2023-02-26T04:18:23;93415.00;;;-6.20
10598;BMP180;5346;48.766;8.674;2023-02-26T04:20:57;93410.00;;;-6.20
10598;BMP180;5346;48.766;8.674;2023-02-26T04:23:25;93415.00;;;-6.10
10598;BMP180;5346;48.766;8.674;2023-02-26T04:25:58;93421.00;;;-6.10
10598;BMP180;5346;48.766;8.674;2023-02-26T04:28:26;93427.00;;;-6.00
10598;BMP180;5346;48.766;8.674;2023-02-26T04:30:59;93420.00;;;-6.00
10598;BMP180;5346;48.766;8.674;2023-02-26T04:33:33;93418.00;;;-5.90
10598;BMP180;5346;48.766;8.674;2023-02-26T04:36:01;93423.00;;;-5.90
10598;BMP180;5346;48.766;8.674;2023-02-26T04:38:28;93422.00;;;-5.80
10598;BMP180;5346;48.766;8.674;2023-02-26T04:41:02;93429.00;;;-5.70
10598;BMP180;5346;48.766;8.674;2023-02-26T04:43:36;93425.00;;;-5.70
10598;BMP180;5346;48.766;8.674;2023-02-26T04:46:10;93428.00;;;-5.70
10598;BMP180;5346;48.766;8.674;2023-02-26T04:48:44;93434.00;;;-5.70
10598;BMP180;5346;48.766;8.674;2023-02-26T04:51:12;93441.00;;;-5.70
10598;BMP180;5346;48.766;8.674;2023-02-26T04:53:46;93431.00;;;-5.70
10598;BMP180;5346;48.766;8.674;2023-02-26T04:56:14;93432.00;;;-5.80
10598;BMP180;5346;48.766;8.674;2023-02-26T04:58:48;93430.00;;;-5.80
10598;BMP180;5346;48.766;8.674;2023-02-26T05:01:22;93438.00;;;-5.80
10598;BMP180;5346;48.766;8.674;2023-02-26T05:03:56;93432.00;;;-5.50
10598;BMP180;5346;48.766;8.674;2023-02-26T05:06:24;93433.00;;;-5.50
10598;BMP180;5346;48.766;8.674;2023-02-26T05:08:51;93434.00;;;-5.60
10598;BMP180;5346;48.766;8.674;2023-02-26T05:11:25;93431.00;;;-5.70
10598;BMP180;5346;48.766;8.674;2023-02-26T05:14:00;93439.00;;;-5.80
10598;BMP180;5346;48.766;8.674;2023-02-26T05:16:34;93442.00;;;-5.70
10598;BMP180;5346;48.766;8.674;2023-02-26T05:19:08;93447.00;;;-5.70
10598;BMP180;5346;48.766;8.674;2023-02-26T05:21:42;93442.00;;;-5.70
10598;BMP180;5346;48.766;8.674;2023-02-26T05:24:16;93446.00;;;-5.60
10598;BMP180;5346;48.766;8.674;2023-02-26T05:26:50;93439.00;;;-5.70
10598;BMP180;5346;48.766;8.674;2023-02-26T05:29:25;93445.00;;;-5.70
10598;BMP180;5346;48.766;8.674;2023-02-26T05:32:12;93448.00;;;-5.70
10598;BMP180;5346;48.766;8.674;2023-02-26T05:34:47;93447.00;;;-5.80
10598;BMP180;5346;48.766;8.674;2023-02-26T05:37:14;93439.00;;;-6.00
10598;BMP180;5346;48.766;8.674;2023-02-26T05:39:55;93456.00;;;-6.00
10598;BMP180;5346;48.766;8.674;2023-02-26T05:42:29;93452.00;;;-6.00
10598;BMP180;5346;48.766;8.674;2023-02-26T05:44:57;93456.00;;;-5.90
10598;BMP180;5346;48.766;8.674;2023-02-26T05:47:38;93469.00;;;-5.90
10598;BMP180;5346;48.766;8.674;2023-02-26T05:50:12;93463.00;;;-5.80
10598;BMP180;5346;48.766;8.674;2023-02-26T05:52:46;93473.00;;;-5.70
10598;BMP180;5346;48.766;8.674;2023-02-26T05:55:21;93465.00;;;-5.70
10598;BMP180;5346;48.766;8.674;2023-02-26T05:57:55;93476.00;;;-5.80
10598;BMP180;5346;48.766;8.674;2023-02-26T06:00:23;93470.00;;;-5.70
10598;BMP180;5346;48.766;8.674;2023-02-26T06:02:57;93475.00;;;-5.70
10598;BMP180;5346;48.766;8.674;2023-02-26T06:05:31;93487.00;;;-5.80
10598;BMP180;5346;48.766;8.674;2023-02-26T06:07:59;93489.00;;;-5.70
10598;BMP180;5346;48.766;8.674;2023-02-26T06:10:34;93488.00;;;-5.70
10598;BMP180;5346;48.766;8.674;2023-02-26T06:13:08;93492.00;;;-5.70
10598;BMP180;5346;48.766;8.674;2023-02-26T06:15:43;93492.00;;;-5.70
10598;BMP180;5346;48.766;8.674;2023-02-26T06:18:11;93488.00;;;-5.70
10598;BMP180;5346;48.766;8.674;2023-02-26T06:20:45;93484.00;;;-5.60
10598;BMP180;5346;48.766;8.674;2023-02-26T06:23:13;93501.00;;;-5.40
10598;BMP180;5346;48.766;8.674;2023-02-26T06:25:52;93490.00;;;-5.30
10598;BMP180;5346;48.766;8.674;2023-02-26T06:28:28;93502.00;;;-5.20
10598;BMP180;5346;48.766;8.674;2023-02-26T06:31:03;93505.00;;;-5.20
10598;BMP180;5346;48.766;8.674;2023-02-26T06:33:31;93503.00;;;-5.10
10598;BMP180;5346;48.766;8.674;2023-02-26T06:36:05;93516.00;;;-4.70
10598;BMP180;5346;48.766;8.674;2023-02-26T06:38:40;93519.00;;;-4.70
10598;BMP180;5346;48.766;8.674;2023-02-26T06:41:21;93528.00;;;-4.50
10598;BMP180;5346;48.766;8.674;2023-02-26T06:43:55;93527.00;;;-4.40
10598;BMP180;5346;48.766;8.674;2023-02-26T06:46:29;93522.00;;;-4.40
10598;BMP180;5346;48.766;8.674;2023-02-26T06:48:57;93527.00;;;-4.00
10598;BMP180;5346;48.766;8.674;2023-02-26T06:51:31;93533.00;;;-3.80
10598;BMP180;5346;48.766;8.674;2023-02-26T06:54:06;93531.00;;;-3.80
10598;BMP180;5346;48.766;8.674;2023-02-26T06:56:40;93538.00;;;-3.90
10598;BMP180;5346;48.766;8.674;2023-02-26T06:59:08;93537.00;;;-3.80
10598;BMP180;5346;48.766;8.674;2023-02-26T07:01:42;93549.00;;;-4.00
10598;BMP180;5346;48.766;8.674;2023-02-26T07:04:10;93554.00;;;-4.20
10598;BMP180;5346;48.766;8.674;2023-02-26T07:06:46;93557.00;;;-4.50
10598;BMP180;5346;48.766;8.674;2023-02-26T07:09:21;93563.00;;;-4.60
10598;BMP180;5346;48.766;8.674;2023-02-26T07:11:54;93560.00;;;-4.50
10598;BMP180;5346;48.766;8.674;2023-02-26T07:14:22;93565.00;;;-4.20
10598;BMP180;5346;48.766;8.674;2023-02-26T07:16:56;93575.00;;;-4.10
10598;BMP180;5346;48.766;8.674;2023-02-26T07:19:30;93576.00;;;-4.10
10598;BMP180;5346;48.766;8.674;2023-02-26T07:22:04;93578.00;;;-4.10
10598;BMP180;5346;48.766;8.674;2023-02-26T07:24:39;93581.00;;;-4.10
10598;BMP180;5346;48.766;8.674;2023-02-26T07:27:14;93584.00;;;-4.20
10598;BMP180;5346;48.766;8.674;2023-02-26T07:29:42;93583.00;;;-4.20
10598;BMP180;5346;48.766;8.674;2023-02-26T07:32:18;93582.00;;;-3.90
10598;BMP180;5346;48.766;8.674;2023-02-26T07:34:46;93582.00;;;-4.00
10598;BMP180;5346;48.766;8.674;2023-02-26T07:37:19;93588.00;;;-3.90
10598;BMP180;5346;48.766;8.674;2023-02-26T07:39:47;93587.00;;;-3.80
10598;BMP180;5346;48.766;8.674;2023-02-26T07:42:21;93590.00;;;-3.70
10598;BMP180;5346;48.766;8.674;2023-02-26T07:44:49;93594.00;;;-3.50
10598;BMP180;5346;48.766;8.674;2023-02-26T07:47:23;93588.00;;;-3.40
10598;BMP180;5346;48.766;8.674;2023-02-26T07:49:51;93596.00;;;-3.50
10598;BMP180;5346;48.766;8.674;2023-02-26T07:52:26;93588.00;;;-3.20
10598;BMP180;5346;48.766;8.674;2023-02-26T07:54:53;93586.00;;;-2.80
10598;BMP180;5346;48.766;8.674;2023-02-26T07:57:21;93594.00;;;-2.80
10598;BMP180;5346;48.766;8.674;2023-02-26T07:59:57;93591.00;;;-2.60
10598;BMP180;5346;48.766;8.674;2023-02-26T08:02:24;93603.00;;;-2.90
10598;BMP180;5346;48.766;8.674;2023-02-26T08:04:52;93580.00;;;-3.10
10598;BMP180;5346;48.766;8.674;2023-02-26T08:07:26;93593.00;;;-3.30
10598;BMP180;5346;48.766;8.674;2023-02-26T08:09:53;93569.00;;;-2.90
10598;BMP180;5346;48.766;8.674;2023-02-26T08:12:27;93590.00;;;-3.30
10598;BMP180;5346;48.766;8.674;2023-02-26T08:15:03;93598.00;;;-2.70
10598;BMP180;5346;48.766;8.674;2023-02-26T08:17:30;93595.00;;;-3.00
10598;BMP180;5346;48.766;8.674;2023-02-26T08:20:05;93582.00;;;-2.80
10598;BMP180;5346;48.766;8.674;2023-02-26T08:22:40;93604.00;;;-2.80
10598;BMP180;5346;48.766;8.674;2023-02-26T08:25:13;93582.00;;;-2.70
10598;BMP180;5346;48.766;8.674;2023-02-26T08:27:41;93593.00;;;-2.70
10598;BMP180;5346;48.766;8.674;2023-02-26T08:30:15;93605.00;;;-2.80
10598;BMP180;5346;48.766;8.674;2023-02-26T08:32:49;93577.00;;;-2.80
10598;BMP180;5346;48.766;8.674;2023-02-26T08:35:23;93609.00;;;-3.20
10598;BMP180;5346;48.766;8.674;2023-02-26T08:37:57;93602.00;;;-3.30
10598;BMP180;5346;48.766;8.674;2023-02-26T08:40:31;93611.00;;;-2.90
10598;BMP180;5346;48.766;8.674;2023-02-26T08:43:12;93569.00;;;-2.60
10598;BMP180;5346;48.766;8.674;2023-02-26T08:45:39;93615.00;;;-2.50
10598;BMP180;5346;48.766;8.674;2023-02-26T08:48:08;93626.00;;;-2.30
10598;BMP180;5346;48.766;8.674;2023-02-26T08:50:41;93584.00;;;-2.70
10598;BMP180;5346;48.766;8.674;2023-02-26T08:53:15;93617.00;;;-2.90
10598;BMP180;5346;48.766;8.674;2023-02-26T08:55:51;93639.00;;;-3.20
10598;BMP180;5346;48.766;8.674;2023-02-26T08:58:20;93633.00;;;-3.30
10598;BMP180;5346;48.766;8.674;2023-02-26T09:01:13;93595.00;;;-3.10
10598;BMP180;5346;48.766;8.674;2023-02-26T09:03:48;93623.00;;;-3.00
10598;BMP180;5346;48.766;8.674;2023-02-26T09:06:21;93621.00;;;-2.80
10598;BMP180;5346;48.766;8.674;2023-02-26T09:08:58;93633.00;;;-2.60
10598;BMP180;5346;48.766;8.674;2023-02-26T09:11:27;93635.00;;;-2.50
10598;BMP180;5346;48.766;8.674;2023-02-26T09:14:06;93633.00;;;-2.50
10598;BMP180;5346;48.766;8.674;2023-02-26T09:16:34;93643.00;;;-2.50
10598;BMP180;5346;48.766;8.674;2023-02-26T09:19:10;93634.00;;;-2.60
10598;BMP180;5346;48.766;8.674;2023-02-26T09:21:44;93642.00;;;-2.80
10598;BMP180;5346;48.766;8.674;2023-02-26T09:24:18;93652.00;;;-2.80
10598;BMP180;5346;48.766;8.674;2023-02-26T09:26:45;93659.00;;;-2.80
10598;BMP180;5346;48.766;8.674;2023-02-26T09:29:19;93665.00;;;-2.90
10598;BMP180;5346;48.766;8.674;2023-02-26T09:31:49;93649.00;;;-3.30
10598;BMP180;5346;48.766;8.674;2023-02-26T09:34:23;93664.00;;;-3.20
10598;BMP180;5346;48.766;8.674;2023-02-26T09:36:57;93656.00;;;-3.10
10598;BMP180;5346;48.766;8.674;2023-02-26T09:39:31;93652.00;;;-2.50
10598;BMP180;5346;48.766;8.674;2023-02-26T09:45:02;93665.00;;;-2.00
10598;BMP180;5346;48.766;8.674;2023-02-26T09:47:47;93640.00;;;-2.30
10598;BMP180;5346;48.766;8.674;2023-02-26T09:50:40;93673.00;;;-2.40
10598;BMP180;5346;48.766;8.674;2023-02-26T09:53:29;93685.00;;;-3.10
10598;BMP180;5346;48.766;8.674;2023-02-26T09:56:06;93688.00;;;-3.10
10598;BMP180;5346;48.766;8.674;2023-02-26T09:58:42;93689.00;;;-3.30
10598;BMP180;5346;48.766;8.674;2023-02-26T10:01:33;93680.00;;;-3.30
10598;BMP180;5346;48.766;8.674;2023-02-26T10:13:19;93652.00;;;-3.10
10598;BMP180;5346;48.766;8.674;2023-02-26T10:16:00;93695.00;;;-2.40
10598;BMP180;5346;48.766;8.674;2023-02-26T10:18:37;93702.00;;;-2.20
10598;BMP180;5346;48.766;8.674;2023-02-26T10:21:20;93700.00;;;-2.30
10598;BMP180;5346;48.766;8.674;2023-02-26T10:23:56;93705.00;;;-2.40
10598;BMP180;5346;48.766;8.674;2023-02-26T10:26:36;93709.00;;;-2.70
10598;BMP180;5346;48.766;8.674;2023-02-26T10:29:29;93698.00;;;-2.80
10598;BMP180;5346;48.766;8.674;2023-02-26T10:35:11;93702.00;;;-2.90
10598;BMP180;5346;48.766;8.674;2023-02-26T10:37:50;93713.00;;;-2.90
10598;BMP180;5346;48.766;8.674;2023-02-26T10:52:21;93715.00;;;-3.10
10598;BMP180;5346;48.766;8.674;2023-02-26T10:55:18;93720.00;;;-2.90
10598;BMP180;5346;48.766;8.674;2023-02-26T10:58:12;93729.00;;;-2.70
10598;BMP180;5346;48.766;8.674;2023-02-26T11:00:45;93734.00;;;-2.70
10598;BMP180;5346;48.766;8.674;2023-02-26T11:03:29;93725.00;;;-2.50
10598;BMP180;5346;48.766;8.674;2023-02-26T11:05:58;93732.00;;;-2.30
10598;BMP180;5346;48.766;8.674;2023-02-26T11:08:39;93733.00;;;-2.30
10598;BMP180;5346;48.766;8.674;2023-02-26T11:11:34;93708.00;;;-2.30
10598;BMP180;5346;48.766;8.674;2023-02-26T11:14:09;93725.00;;;-2.20
10598;BMP180;5346;48.766;8.674;2023-02-26T11:16:57;93733.00;;;-2.10
10598;BMP180;5346;48.766;8.674;2023-02-26T11:19:36;93734.00;;;-2.20
10598;BMP180;5346;48.766;8.674;2023-02-26T11:22:06;93710.00;;;-1.90
10598;BMP180;5346;48.766;8.674;2023-02-26T11:24:46;93722.00;;;-1.90
10598;BMP180;5346;48.766;8.674;2023-02-26T11:27:29;93717.00;;;-1.70
10598;BMP180;5346;48.766;8.674;2023-02-26T11:30:13;93731.00;;;-1.80
10598;BMP180;5346;48.766;8.674;2023-02-26T11:32:51;93722.00;;;-2.10
10598;BMP180;5346;48.766;8.674;2023-02-26T11:35:27;93717.00;;;-1.80
10598;BMP180;5346;48.766;8.674;2023-02-26T11:37:59;93722.00;;;-1.50
10598;BMP180;5346;48.766;8.674;2023-02-26T11:40:42;93729.00;;;-1.60
10598;BMP180;5346;48.766;8.674;2023-02-26T11:43:22;93730.00;;;-1.80
10598;BMP180;5346;48.766;8.674;2023-02-26T11:46:01;93727.00;;;-2.00
10598;BMP180;5346;48.766;8.674;2023-02-26T11:51:26;93736.00;;;-2.00
10598;BMP180;5346;48.766;8.674;2023-02-26T11:54:00;93722.00;;;-2.30
10598;BMP180;5346;48.766;8.674;2023-02-26T11:56:40;93737.00;;;-2.50
10598;BMP180;5346;48.766;8.674;2023-02-26T11:59:24;93724.00;;;-2.50
10598;BMP180;5346;48.766;8.674;2023-02-26T12:02:12;93734.00;;;-2.20
10598;BMP180;5346;48.766;8.674;2023-02-26T12:04:54;93716.00;;;-1.80
10598;BMP180;5346;48.766;8.674;2023-02-26T12:07:23;93703.00;;;-1.10
10598;BMP180;5346;48.766;8.674;2023-02-26T12:09:58;93725.00;;;-0.80
10598;BMP180;5346;48.766;8.674;2023-02-26T12:12:41;93740.00;;;-0.90
10598;BMP180;5346;48.766;8.674;2023-02-26T12:15:55;93743.00;;;-1.70
10598;BMP180;5346;48.766;8.674;2023-02-26T12:31:20;93756.00;;;-1.80
10598;BMP180;5346;48.766;8.674;2023-02-26T12:43:19;93753.00;;;-2.40
10598;BMP180;5346;48.766;8.674;2023-02-26T12:52:34;93762.00;;;-2.50
10598;BMP180;5346;48.766;8.674;2023-02-26T13:01:19;93750.00;;;-2.30
10598;BMP180;5346;48.766;8.674;2023-02-26T13:10:05;93762.00;;;-2.00
10598;BMP180;5346;48.766;8.674;2023-02-26T13:12:49;93765.00;;;-1.90
10598;BMP180;5346;48.766;8.674;2023-02-26T13:21:49;93767.00;;;-1.80
10598;BMP180;5346;48.766;8.674;2023-02-26T13:27:02;93769.00;;;-1.90
10598;BMP180;5346;48.766;8.674;2023-02-26T13:29:57;93774.00;;;-2.00
10598;BMP180;5346;48.766;8.674;2023-02-26T13:32:33;93774.00;;;-2.10
10598;BMP180;5346;48.766;8.674;2023-02-26T13:35:37;93784.00;;;-2.10
10598;BMP180;5346;48.766;8.674;2023-02-26T13:41:15;93764.00;;;-1.80
10598;BMP180;5346;48.766;8.674;2023-02-26T13:53:02;93768.00;;;-1.50
10598;BMP180;5346;48.766;8.674;2023-02-26T13:55:44;93773.00;;;-1.00
10598;BMP180;5346;48.766;8.674;2023-02-26T14:01:18;93783.00;;;-1.00
10598;BMP180;5346;48.766;8.674;2023-02-26T14:07:10;93789.00;;;-1.80
10598;BMP180;5346;48.766;8.674;2023-02-26T14:09:58;93794.00;;;-1.80
10598;BMP180;5346;48.766;8.674;2023-02-26T14:12:36;93711.00;;;-1.70
10598;BMP180;5346;48.766;8.674;2023-02-26T14:15:18;93803.00;;;-1.70
10598;BMP180;5346;48.766;8.674;2023-02-26T14:25:51;93809.00;;;-1.30
10598;BMP180;5346;48.766;8.674;2023-02-26T14:31:20;93796.00;;;-1.30
10598;BMP180;5346;48.766;8.674;2023-02-26T14:34:06;93790.00;;;-0.90
10598;BMP180;5346;48.766;8.674;2023-02-26T14:39:38;93793.00;;;0.20
10598;BMP180;5346;48.766;8.674;2023-02-26T14:42:34;93793.00;;;0.10
10598;BMP180;5346;48.766;8.674;2023-02-26T14:45:28;93794.00;;;0.20
10598;BMP180;5346;48.766;8.674;2023-02-26T14:48:12;93796.00;;;0.90
10598;BMP180;5346;48.766;8.674;2023-02-26T14:57:22;93805.00;;;-0.20
10598;BMP180;5346;48.766;8.674;2023-02-26T15:00:22;93783.00;;;-0.30
10598;BMP180;5346;48.766;8.674;2023-02-26T15:06:59;93829.00;;;-1.70
10598;BMP180;5346;48.766;8.674;2023-02-26T15:10:19;93832.00;;;-2.00
10598;BMP180;5346;48.766;8.674;2023-02-26T15:25:31;93831.00;;;-1.60
10598;BMP180;5346;48.766;8.674;2023-02-26T15:28:02;93834.00;;;-1.60
10598;BMP180;5346;48.766;8.674;2023-02-26T15:30:37;93826.00;;;-1.80
10598;BMP180;5346;48.766;8.674;2023-02-26T15:33:14;93854.00;;;-2.00
10598;BMP180;5346;48.766;8.674;2023-02-26T15:35:52;93847.00;;;-2.10
10598;BMP180;5346;48.766;8.674;2023-02-26T15:38:20;93828.00;;;-2.20
10598;BMP180;5346;48.766;8.674;2023-02-26T15:41:02;93826.00;;;-2.10
10598;BMP180;5346;48.766;8.674;2023-02-26T15:43:30;93845.00;;;-1.80
10598;BMP180;5346;48.766;8.674;2023-02-26T15:46:04;93861.00;;;-1.70
10598;BMP180;5346;48.766;8.674;2023-02-26T15:48:37;93845.00;;;-1.40
10598;BMP180;5346;48.766;8.674;2023-02-26T15:51:18;93862.00;;;-1.00
10598;BMP180;5346;48.766;8.674;2023-02-26T15:53:53;93858.00;;;-1.20
10598;BMP180;5346;48.766;8.674;2023-02-26T15:56:37;93824.00;;;-1.50
10598;BMP180;5346;48.766;8.674;2023-02-26T15:59:25;93871.00;;;-1.60
10598;BMP180;5346;48.766;8.674;2023-02-26T16:02:01;93875.00;;;-1.70
10598;BMP180;5346;48.766;8.674;2023-02-26T16:04:35;93865.00;;;-1.70
10598;BMP180;5346;48.766;8.674;2023-02-26T16:07:03;93851.00;;;-1.70
10598;BMP180;5346;48.766;8.674;2023-02-26T16:09:46;93857.00;;;-1.90
10598;BMP180;5346;48.766;8.674;2023-02-26T16:12:34;93879.00;;;-1.90
10598;BMP180;5346;48.766;8.674;2023-02-26T16:15:21;93842.00;;;-1.90
10598;BMP180;5346;48.766;8.674;2023-02-26T16:17:57;93873.00;;;-1.80
10598;BMP180;5346;48.766;8.674;2023-02-26T16:20:42;93862.00;;;-1.90
10598;BMP180;5346;48.766;8.674;2023-02-26T16:23:22;93880.00;;;-2.10
10598;BMP180;5346;48.766;8.674;2023-02-26T16:25:57;93871.00;;;-2.00
10598;BMP180;5346;48.766;8.674;2023-02-26T16:28:38;93907.00;;;-2.10
10598;BMP180;5346;48.766;8.674;2023-02-26T16:31:23;93886.00;;;-2.00
10598;BMP180;5346;48.766;8.674;2023-02-26T16:34:34;93900.00;;;-2.10
10598;BMP180;5346;48.766;8.674;2023-02-26T16:37:09;93904.00;;;-2.30
10598;BMP180;5346;48.766;8.674;2023-02-26T16:39:57;93911.00;;;-2.20
10598;BMP180;5346;48.766;8.674;2023-02-26T16:48:20;93919.00;;;-2.60
10598;BMP180;5346;48.766;8.674;2023-02-26T16:51:02;93941.00;;;-2.70
10598;BMP180;5346;48.766;8.674;2023-02-26T16:53:46;93913.00;;;-2.70
10598;BMP180;5346;48.766;8.674;2023-02-26T16:56:24;93919.00;;;-2.80
10598;BMP180;5346;48.766;8.674;2023-02-26T16:59:22;93959.00;;;-3.10
10598;BMP180;5346;48.766;8.674;2023-02-26T17:02:17;93924.00;;;-3.00
10598;BMP180;5346;48.766;8.674;2023-02-26T17:04:59;93930.00;;;-3.00
10598;BMP180;5346;48.766;8.674;2023-02-26T17:07:46;93963.00;;;-3.00
10598;BMP180;5346;48.766;8.674;2023-02-26T17:10:32;93871.00;;;-3.10
10598;BMP180;5346;48.766;8.674;2023-02-26T17:15:46;93949.00;;;-2.90
10598;BMP180;5346;48.766;8.674;2023-02-26T17:18:15;93983.00;;;-2.90
10598;BMP180;5346;48.766;8.674;2023-02-26T17:20:48;93954.00;;;-2.90
10598;BMP180;5346;48.766;8.674;2023-02-26T17:23:18;93961.00;;;-2.90
10598;BMP180;5346;48.766;8.674;2023-02-26T17:25:52;93933.00;;;-2.90
10598;BMP180;5346;48.766;8.674;2023-02-26T17:28:32;93968.00;;;-2.70
10598;BMP180;5346;48.766;8.674;2023-02-26T17:31:03;93969.00;;;-2.70
10598;BMP180;5346;48.766;8.674;2023-02-26T17:33:41;93979.00;;;-2.70
10598;BMP180;5346;48.766;8.674;2023-02-26T17:36:14;93997.00;;;-2.70
10598;BMP180;5346;48.766;8.674;2023-02-26T17:38:48;93997.00;;;-2.80
10598;BMP180;5346;48.766;8.674;2023-02-26T17:41:29;93932.00;;;-2.70
10598;BMP180;5346;48.766;8.674;2023-02-26T17:44:03;93996.00;;;-2.80
10598;BMP180;5346;48.766;8.674;2023-02-26T17:46:30;93971.00;;;-2.70
10598;BMP180;5346;48.766;8.674;2023-02-26T17:49:11;94007.00;;;-2.80
10598;BMP180;5346;48.766;8.674;2023-02-26T17:51:45;94008.00;;;-2.80
10598;BMP180;5346;48.766;8.674;2023-02-26T17:54:19;93962.00;;;-2.80
10598;BMP180;5346;48.766;8.674;2023-02-26T17:56:53;94009.00;;;-2.80
10598;BMP180;5346;48.766;8.674;2023-02-26T17:59:27;93972.00;;;-2.90
10598;BMP180;5346;48.766;8.674;2023-02-26T18:01:54;93957.00;;;-2.90
10598;BMP180;5346;48.766;8.674;2023-02-26T18:04:28;93991.00;;;-3.00
10598;BMP180;5346;48.766;8.674;2023-02-26T18:07:02;94026.00;;;-3.00
10598;BMP180;5346;48.766;8.674;2023-02-26T18:09:36;94027.00;;;-3.10
10598;BMP180;5346;48.766;8.674;2023-02-26T18:12:17;94016.00;;;-3.10
10598;BMP180;5346;48.766;8.674;2023-02-26T18:14:44;93998.00;;;-3.10
10598;BMP180;5346;48.766;8.674;2023-02-26T18:17:24;93989.00;;;-3.10
10598;BMP180;5346;48.766;8.674;2023-02-26T18:19:58;93978.00;;;-3.10
10598;BMP180;5346;48.766;8.674;2023-02-26T18:22:34;94027.00;;;-3.10
10598;BMP180;5346;48.766;8.674;2023-02-26T18:25:11;94026.00;;;-3.10
10598;BMP180;5346;48.766;8.674;2023-02-26T18:27:49;93991.00;;;-3.20
10598;BMP180;5346;48.766;8.674;2023-02-26T18:30:35;93970.00;;;-3.20
10598;BMP180;5346;48.766;8.674;2023-02-26T18:33:13;94025.00;;;-3.20